sensor_id;sensor_type;location;lat;lon;timestamp;P1;durP1;ratioP1;P2;durP2;ratioP2
18738;SDS011;9498;51.862;19.460;2022-12-31T00:01:22;50.78;;;22.30;;
18738;SDS011;9498;51.862;19.460;2022-12-31T00:03:52;50.13;;;21.50;;
18738;SDS011;9498;51.862;19.460;2022-12-31T00:06:20;46.13;;;17.93;;
18738;SDS011;9498;51.862;19.460;2022-12-31T00:08:48;44.33;;;19.10;;
18738;SDS011;9498;51.862;19.460;2022-12-31T00:11:16;42.97;;;17.23;;
18738;SDS011;9498;51.862;19.460;2022-12-31T00:13:44;42.17;;;17.50;;
18738;SDS011;9498;51.862;19.460;2022-12-31T00:16:12;42.43;;;17.67;;
18738;SDS011;9498;51.862;19.460;2022-12-31T00:18:41;41.93;;;18.03;;
18738;SDS011;9498;51.862;19.460;2022-12-31T00:21:10;37.40;;;16.30;;
18738;SDS011;9498;51.862;19.460;2022-12-31T00:23:38;40.57;;;17.73;;
18738;SDS011;9498;51.862;19.460;2022-12-31T00:26:06;37.57;;;17.40;;
18738;SDS011;9498;51.862;19.460;2022-12-31T00:28:33;48.53;;;20.10;;
18738;SDS011;9498;51.862;19.460;2022-12-31T00:31:05;39.93;;;17.33;;
18738;SDS011;9498;51.862;19.460;2022-12-31T00:33:32;43.10;;;17.57;;
18738;SDS011;9498;51.862;19.460;2022-12-31T00:36:06;40.17;;;17.00;;
18738;SDS011;9498;51.862;19.460;2022-12-31T00:38:35;36.30;;;16.97;;
18738;SDS011;9498;51.862;19.460;2022-12-31T00:41:03;45.53;;;18.13;;
18738;SDS011;9498;51.862;19.460;2022-12-31T00:43:31;39.63;;;16.67;;
18738;SDS011;9498;51.862;19.460;2022-12-31T00:45:59;36.30;;;16.20;;
18738;SDS011;9498;51.862;19.460;2022-12-31T00:48:26;35.63;;;16.73;;
18738;SDS011;9498;51.862;19.460;2022-12-31T00:50:54;39.23;;;16.13;;
18738;SDS011;9498;51.862;19.460;2022-12-31T00:53:22;42.77;;;16.43;;
18738;SDS011;9498;51.862;19.460;2022-12-31T00:55:50;39.10;;;16.40;;
18738;SDS011;9498;51.862;19.460;2022-12-31T00:58:18;37.07;;;14.90;;
18738;SDS011;9498;51.862;19.460;2022-12-31T01:00:45;37.57;;;15.57;;
18738;SDS011;9498;51.862;19.460;2022-12-31T01:03:12;36.17;;;15.30;;
18738;SDS011;9498;51.862;19.460;2022-12-31T01:05:40;37.43;;;15.97;;
18738;SDS011;9498;51.862;19.460;2022-12-31T01:08:07;42.23;;;15.73;;
18738;SDS011;9498;51.862;19.460;2022-12-31T01:10:34;35.33;;;15.17;;
18738;SDS011;9498;51.862;19.460;2022-12-31T01:13:21;38.07;;;15.57;;
18738;SDS011;9498;51.862;19.460;2022-12-31T01:15:48;39.13;;;15.60;;
18738;SDS011;9498;51.862;19.460;2022-12-31T01:18:15;38.53;;;15.57;;
18738;SDS011;9498;51.862;19.460;2022-12-31T01:20:43;34.00;;;14.57;;
18738;SDS011;9498;51.862;19.460;2022-12-31T01:23:10;39.70;;;15.93;;
18738;SDS011;9498;51.862;19.460;2022-12-31T01:25:38;36.17;;;14.43;;
18738;SDS011;9498;51.862;19.460;2022-12-31T01:28:08;39.47;;;15.35;;
18738;SDS011;9498;51.862;19.460;2022-12-31T01:30:38;35.83;;;15.73;;
18738;SDS011;9498;51.862;19.460;2022-12-31T01:33:06;32.80;;;14.47;;
18738;SDS011;9498;51.862;19.460;2022-12-31T01:35:33;36.57;;;15.33;;
18738;SDS011;9498;51.862;19.460;2022-12-31T01:38:00;34.20;;;13.90;;
18738;SDS011;9498;51.862;19.460;2022-12-31T01:40:28;36.07;;;15.30;;
18738;SDS011;9498;51.862;19.460;2022-12-31T01:42:56;39.40;;;14.73;;
18738;SDS011;9498;51.862;19.460;2022-12-31T01:45:23;37.70;;;15.40;;
18738;SDS011;9498;51.862;19.460;2022-12-31T01:47:53;33.87;;;14.70;;
18738;SDS011;9498;51.862;19.460;2022-12-31T01:50:23;34.47;;;15.53;;
18738;SDS011;9498;51.862;19.460;2022-12-31T01:52:52;41.47;;;16.53;;
18738;SDS011;9498;51.862;19.460;2022-12-31T01:55:20;36.97;;;15.47;;
18738;SDS011;9498;51.862;19.460;2022-12-31T01:57:49;40.25;;;18.10;;
18738;SDS011;9498;51.862;19.460;2022-12-31T02:00:17;40.60;;;16.40;;
18738;SDS011;9498;51.862;19.460;2022-12-31T02:02:44;37.47;;;14.87;;
18738;SDS011;9498;51.862;19.460;2022-12-31T02:05:15;39.03;;;16.07;;
18738;SDS011;9498;51.862;19.460;2022-12-31T02:07:44;35.97;;;14.97;;
18738;SDS011;9498;51.862;19.460;2022-12-31T02:10:13;37.03;;;16.03;;
18738;SDS011;9498;51.862;19.460;2022-12-31T02:12:40;40.43;;;15.70;;
18738;SDS011;9498;51.862;19.460;2022-12-31T02:15:08;38.63;;;15.47;;
18738;SDS011;9498;51.862;19.460;2022-12-31T02:17:38;33.73;;;15.33;;
18738;SDS011;9498;51.862;19.460;2022-12-31T02:20:31;37.67;;;15.93;;
18738;SDS011;9498;51.862;19.460;2022-12-31T02:23:07;36.83;;;16.63;;
18738;SDS011;9498;51.862;19.460;2022-12-31T02:25:50;42.42;;;17.98;;
18738;SDS011;9498;51.862;19.460;2022-12-31T02:28:24;40.67;;;16.90;;
18738;SDS011;9498;51.862;19.460;2022-12-31T02:30:56;38.40;;;16.03;;
18738;SDS011;9498;51.862;19.460;2022-12-31T02:33:26;42.30;;;15.87;;
18738;SDS011;9498;51.862;19.460;2022-12-31T02:35:57;34.87;;;15.50;;
18738;SDS011;9498;51.862;19.460;2022-12-31T02:38:26;35.73;;;16.13;;
18738;SDS011;9498;51.862;19.460;2022-12-31T02:40:55;35.73;;;15.80;;
18738;SDS011;9498;51.862;19.460;2022-12-31T02:43:23;41.23;;;16.50;;
18738;SDS011;9498;51.862;19.460;2022-12-31T02:45:55;38.80;;;15.97;;
18738;SDS011;9498;51.862;19.460;2022-12-31T02:48:34;37.90;;;15.77;;
18738;SDS011;9498;51.862;19.460;2022-12-31T02:51:08;40.80;;;16.10;;
18738;SDS011;9498;51.862;19.460;2022-12-31T02:53:45;38.20;;;16.55;;
18738;SDS011;9498;51.862;19.460;2022-12-31T02:56:15;35.33;;;15.27;;
18738;SDS011;9498;51.862;19.460;2022-12-31T02:58:47;35.53;;;15.90;;
18738;SDS011;9498;51.862;19.460;2022-12-31T03:01:35;37.40;;;15.30;;
18738;SDS011;9498;51.862;19.460;2022-12-31T03:04:22;38.10;;;15.50;;
18738;SDS011;9498;51.862;19.460;2022-12-31T03:07:01;40.20;;;16.10;;
18738;SDS011;9498;51.862;19.460;2022-12-31T03:09:29;35.33;;;14.67;;
18738;SDS011;9498;51.862;19.460;2022-12-31T03:11:56;34.40;;;15.20;;
18738;SDS011;9498;51.862;19.460;2022-12-31T03:14:41;36.83;;;15.73;;
18738;SDS011;9498;51.862;19.460;2022-12-31T03:17:08;37.13;;;14.87;;
18738;SDS011;9498;51.862;19.460;2022-12-31T03:19:37;35.90;;;15.30;;
18738;SDS011;9498;51.862;19.460;2022-12-31T03:22:22;32.70;;;14.30;;
18738;SDS011;9498;51.862;19.460;2022-12-31T03:24:53;39.17;;;17.83;;
18738;SDS011;9498;51.862;19.460;2022-12-31T03:27:38;31.07;;;14.40;;
18738;SDS011;9498;51.862;19.460;2022-12-31T03:30:06;34.63;;;13.83;;
18738;SDS011;9498;51.862;19.460;2022-12-31T03:32:35;31.43;;;14.33;;
18738;SDS011;9498;51.862;19.460;2022-12-31T03:35:05;34.13;;;14.53;;
18738;SDS011;9498;51.862;19.460;2022-12-31T03:37:32;33.23;;;14.33;;
18738;SDS011;9498;51.862;19.460;2022-12-31T03:40:00;30.03;;;13.93;;
18738;SDS011;9498;51.862;19.460;2022-12-31T03:42:27;31.93;;;12.90;;
18738;SDS011;9498;51.862;19.460;2022-12-31T03:44:54;37.07;;;13.70;;
18738;SDS011;9498;51.862;19.460;2022-12-31T03:47:22;30.80;;;12.87;;
18738;SDS011;9498;51.862;19.460;2022-12-31T03:49:49;31.30;;;13.73;;
18738;SDS011;9498;51.862;19.460;2022-12-31T03:52:18;30.70;;;13.27;;
18738;SDS011;9498;51.862;19.460;2022-12-31T03:54:45;32.03;;;15.20;;
18738;SDS011;9498;51.862;19.460;2022-12-31T03:57:12;30.23;;;13.37;;
18738;SDS011;9498;51.862;19.460;2022-12-31T03:59:40;29.70;;;12.43;;
18738;SDS011;9498;51.862;19.460;2022-12-31T04:02:07;27.80;;;12.67;;
18738;SDS011;9498;51.862;19.460;2022-12-31T04:04:34;31.73;;;12.60;;
18738;SDS011;9498;51.862;19.460;2022-12-31T04:07:02;27.13;;;10.90;;
18738;SDS011;9498;51.862;19.460;2022-12-31T04:09:30;27.07;;;12.40;;
18738;SDS011;9498;51.862;19.460;2022-12-31T04:11:58;23.53;;;10.90;;
18738;SDS011;9498;51.862;19.460;2022-12-31T04:14:25;25.07;;;11.63;;
18738;SDS011;9498;51.862;19.460;2022-12-31T04:16:52;24.27;;;11.53;;
18738;SDS011;9498;51.862;19.460;2022-12-31T04:19:20;27.97;;;11.07;;
18738;SDS011;9498;51.862;19.460;2022-12-31T04:21:47;24.67;;;10.80;;
18738;SDS011;9498;51.862;19.460;2022-12-31T04:24:14;23.57;;;10.33;;
18738;SDS011;9498;51.862;19.460;2022-12-31T04:26:43;23.90;;;11.10;;
18738;SDS011;9498;51.862;19.460;2022-12-31T04:29:10;24.48;;;11.73;;
18738;SDS011;9498;51.862;19.460;2022-12-31T04:31:38;22.90;;;10.17;;
18738;SDS011;9498;51.862;19.460;2022-12-31T04:34:05;25.80;;;10.70;;
18738;SDS011;9498;51.862;19.460;2022-12-31T04:36:32;20.23;;;10.30;;
18738;SDS011;9498;51.862;19.460;2022-12-31T04:39:00;19.40;;;9.60;;
18738;SDS011;9498;51.862;19.460;2022-12-31T04:41:27;22.37;;;10.00;;
18738;SDS011;9498;51.862;19.460;2022-12-31T04:43:56;22.53;;;10.47;;
18738;SDS011;9498;51.862;19.460;2022-12-31T04:46:24;21.93;;;10.00;;
18738;SDS011;9498;51.862;19.460;2022-12-31T04:48:52;23.70;;;10.37;;
18738;SDS011;9498;51.862;19.460;2022-12-31T04:51:20;22.87;;;10.13;;
18738;SDS011;9498;51.862;19.460;2022-12-31T04:53:48;19.20;;;9.50;;
18738;SDS011;9498;51.862;19.460;2022-12-31T04:56:15;18.30;;;8.97;;
18738;SDS011;9498;51.862;19.460;2022-12-31T04:58:43;24.00;;;9.73;;
18738;SDS011;9498;51.862;19.460;2022-12-31T05:01:12;20.73;;;9.73;;
18738;SDS011;9498;51.862;19.460;2022-12-31T05:03:39;21.27;;;10.03;;
18738;SDS011;9498;51.862;19.460;2022-12-31T05:06:08;20.63;;;10.17;;
18738;SDS011;9498;51.862;19.460;2022-12-31T05:08:35;18.23;;;9.37;;
18738;SDS011;9498;51.862;19.460;2022-12-31T05:11:02;21.40;;;8.93;;
18738;SDS011;9498;51.862;19.460;2022-12-31T05:13:30;19.07;;;8.83;;
18738;SDS011;9498;51.862;19.460;2022-12-31T05:15:57;22.17;;;9.43;;
18738;SDS011;9498;51.862;19.460;2022-12-31T05:18:26;19.93;;;9.33;;
18738;SDS011;9498;51.862;19.460;2022-12-31T05:20:53;19.93;;;8.70;;
18738;SDS011;9498;51.862;19.460;2022-12-31T05:23:21;20.23;;;8.70;;
18738;SDS011;9498;51.862;19.460;2022-12-31T05:25:48;16.97;;;8.50;;
18738;SDS011;9498;51.862;19.460;2022-12-31T05:28:16;18.03;;;8.30;;
18738;SDS011;9498;51.862;19.460;2022-12-31T05:30:43;20.80;;;10.20;;
18738;SDS011;9498;51.862;19.460;2022-12-31T05:33:10;18.80;;;8.90;;
18738;SDS011;9498;51.862;19.460;2022-12-31T05:35:39;20.73;;;9.03;;
18738;SDS011;9498;51.862;19.460;2022-12-31T05:38:07;17.30;;;8.33;;
18738;SDS011;9498;51.862;19.460;2022-12-31T05:40:34;16.97;;;8.90;;
18738;SDS011;9498;51.862;19.460;2022-12-31T05:43:01;18.97;;;8.00;;
18738;SDS011;9498;51.862;19.460;2022-12-31T05:45:29;17.10;;;8.67;;
18738;SDS011;9498;51.862;19.460;2022-12-31T05:47:56;14.53;;;7.67;;
18738;SDS011;9498;51.862;19.460;2022-12-31T05:50:23;17.07;;;8.70;;
18738;SDS011;9498;51.862;19.460;2022-12-31T05:52:52;19.73;;;8.80;;
18738;SDS011;9498;51.862;19.460;2022-12-31T05:55:19;16.80;;;8.17;;
18738;SDS011;9498;51.862;19.460;2022-12-31T05:57:47;18.00;;;7.77;;
18738;SDS011;9498;51.862;19.460;2022-12-31T06:00:14;15.37;;;8.07;;
18738;SDS011;9498;51.862;19.460;2022-12-31T06:02:42;16.33;;;7.77;;
18738;SDS011;9498;51.862;19.460;2022-12-31T06:05:09;18.47;;;7.50;;
18738;SDS011;9498;51.862;19.460;2022-12-31T06:07:36;17.70;;;7.43;;
18738;SDS011;9498;51.862;19.460;2022-12-31T06:10:06;16.80;;;7.73;;
18738;SDS011;9498;51.862;19.460;2022-12-31T06:12:33;16.90;;;7.37;;
18738;SDS011;9498;51.862;19.460;2022-12-31T06:15:00;15.77;;;7.37;;
18738;SDS011;9498;51.862;19.460;2022-12-31T06:17:28;17.00;;;7.67;;
18738;SDS011;9498;51.862;19.460;2022-12-31T06:19:56;14.33;;;7.00;;
18738;SDS011;9498;51.862;19.460;2022-12-31T06:22:24;16.67;;;7.63;;
18738;SDS011;9498;51.862;19.460;2022-12-31T06:24:52;17.77;;;7.20;;
18738;SDS011;9498;51.862;19.460;2022-12-31T06:27:21;14.67;;;7.20;;
18738;SDS011;9498;51.862;19.460;2022-12-31T06:29:48;15.53;;;7.20;;
18738;SDS011;9498;51.862;19.460;2022-12-31T06:32:16;20.27;;;7.40;;
18738;SDS011;9498;51.862;19.460;2022-12-31T06:34:43;17.27;;;7.17;;
18738;SDS011;9498;51.862;19.460;2022-12-31T06:37:10;17.00;;;7.37;;
18738;SDS011;9498;51.862;19.460;2022-12-31T06:39:38;17.73;;;7.00;;
18738;SDS011;9498;51.862;19.460;2022-12-31T06:42:05;14.17;;;7.43;;
18738;SDS011;9498;51.862;19.460;2022-12-31T06:44:34;14.27;;;7.17;;
18738;SDS011;9498;51.862;19.460;2022-12-31T06:47:01;15.13;;;7.07;;
18738;SDS011;9498;51.862;19.460;2022-12-31T06:49:28;17.43;;;7.00;;
18738;SDS011;9498;51.862;19.460;2022-12-31T06:51:56;15.97;;;6.80;;
18738;SDS011;9498;51.862;19.460;2022-12-31T06:54:23;14.50;;;6.80;;
18738;SDS011;9498;51.862;19.460;2022-12-31T06:56:50;15.80;;;6.67;;
18738;SDS011;9498;51.862;19.460;2022-12-31T06:59:22;15.43;;;7.20;;
18738;SDS011;9498;51.862;19.460;2022-12-31T07:01:56;13.13;;;6.70;;
18738;SDS011;9498;51.862;19.460;2022-12-31T07:04:28;18.30;;;8.07;;
18738;SDS011;9498;51.862;19.460;2022-12-31T07:06:59;15.27;;;7.43;;
18738;SDS011;9498;51.862;19.460;2022-12-31T07:09:33;13.23;;;7.10;;
18738;SDS011;9498;51.862;19.460;2022-12-31T07:12:03;16.17;;;7.27;;
18738;SDS011;9498;51.862;19.460;2022-12-31T07:14:31;15.50;;;7.37;;
18738;SDS011;9498;51.862;19.460;2022-12-31T07:17:04;15.93;;;7.57;;
18738;SDS011;9498;51.862;19.460;2022-12-31T07:19:40;15.93;;;6.73;;
18738;SDS011;9498;51.862;19.460;2022-12-31T07:22:12;14.40;;;7.03;;
18738;SDS011;9498;51.862;19.460;2022-12-31T07:24:41;17.58;;;8.18;;
18738;SDS011;9498;51.862;19.460;2022-12-31T07:27:16;14.77;;;7.43;;
18738;SDS011;9498;51.862;19.460;2022-12-31T07:29:49;14.47;;;7.70;;
18738;SDS011;9498;51.862;19.460;2022-12-31T07:32:22;16.90;;;6.97;;
18738;SDS011;9498;51.862;19.460;2022-12-31T07:34:54;15.53;;;7.23;;
18738;SDS011;9498;51.862;19.460;2022-12-31T07:37:25;16.97;;;7.83;;
18738;SDS011;9498;51.862;19.460;2022-12-31T07:39:57;15.47;;;6.87;;
18738;SDS011;9498;51.862;19.460;2022-12-31T07:42:30;15.32;;;7.93;;
18738;SDS011;9498;51.862;19.460;2022-12-31T07:45:00;13.87;;;7.47;;
18738;SDS011;9498;51.862;19.460;2022-12-31T07:47:30;14.97;;;7.07;;
18738;SDS011;9498;51.862;19.460;2022-12-31T07:49:58;15.67;;;6.87;;
18738;SDS011;9498;51.862;19.460;2022-12-31T07:52:26;14.37;;;7.37;;
18738;SDS011;9498;51.862;19.460;2022-12-31T07:54:53;13.37;;;7.00;;
18738;SDS011;9498;51.862;19.460;2022-12-31T07:57:20;15.47;;;6.93;;
18738;SDS011;9498;51.862;19.460;2022-12-31T07:59:52;13.43;;;6.60;;
18738;SDS011;9498;51.862;19.460;2022-12-31T08:02:28;12.40;;;6.60;;
18738;SDS011;9498;51.862;19.460;2022-12-31T08:05:04;12.53;;;6.23;;
18738;SDS011;9498;51.862;19.460;2022-12-31T08:07:34;13.13;;;6.50;;
18738;SDS011;9498;51.862;19.460;2022-12-31T08:10:03;12.73;;;6.40;;
18738;SDS011;9498;51.862;19.460;2022-12-31T08:12:35;11.73;;;6.57;;
18738;SDS011;9498;51.862;19.460;2022-12-31T08:15:09;13.87;;;6.63;;
18738;SDS011;9498;51.862;19.460;2022-12-31T08:17:37;12.43;;;5.77;;
18738;SDS011;9498;51.862;19.460;2022-12-31T08:20:10;12.40;;;5.43;;
18738;SDS011;9498;51.862;19.460;2022-12-31T08:22:41;11.20;;;6.20;;
18738;SDS011;9498;51.862;19.460;2022-12-31T08:25:16;16.10;;;5.83;;
18738;SDS011;9498;51.862;19.460;2022-12-31T08:27:46;12.67;;;6.10;;
18738;SDS011;9498;51.862;19.460;2022-12-31T08:30:15;12.55;;;6.38;;
18738;SDS011;9498;51.862;19.460;2022-12-31T08:32:45;12.07;;;6.17;;
18738;SDS011;9498;51.862;19.460;2022-12-31T08:35:20;13.40;;;5.93;;
18738;SDS011;9498;51.862;19.460;2022-12-31T08:37:52;14.80;;;5.80;;
18738;SDS011;9498;51.862;19.460;2022-12-31T08:40:23;11.40;;;5.30;;
18738;SDS011;9498;51.862;19.460;2022-12-31T08:42:59;13.17;;;6.27;;
18738;SDS011;9498;51.862;19.460;2022-12-31T08:45:31;14.20;;;5.80;;
18738;SDS011;9498;51.862;19.460;2022-12-31T08:48:02;12.10;;;5.95;;
18738;SDS011;9498;51.862;19.460;2022-12-31T08:50:32;11.27;;;5.47;;
18738;SDS011;9498;51.862;19.460;2022-12-31T08:52:59;12.00;;;5.40;;
18738;SDS011;9498;51.862;19.460;2022-12-31T08:55:27;12.27;;;5.80;;
18738;SDS011;9498;51.862;19.460;2022-12-31T08:58:00;11.67;;;5.40;;
18738;SDS011;9498;51.862;19.460;2022-12-31T09:00:30;10.40;;;5.37;;
18738;SDS011;9498;51.862;19.460;2022-12-31T09:03:06;9.37;;;5.17;;
18738;SDS011;9498;51.862;19.460;2022-12-31T09:05:43;10.63;;;5.10;;
18738;SDS011;9498;51.862;19.460;2022-12-31T09:08:15;13.07;;;5.97;;
18738;SDS011;9498;51.862;19.460;2022-12-31T09:10:45;10.93;;;4.97;;
18738;SDS011;9498;51.862;19.460;2022-12-31T09:13:18;12.27;;;5.33;;
18738;SDS011;9498;51.862;19.460;2022-12-31T09:15:48;12.30;;;5.23;;
18738;SDS011;9498;51.862;19.460;2022-12-31T09:18:19;8.50;;;4.70;;
18738;SDS011;9498;51.862;19.460;2022-12-31T09:20:48;11.13;;;4.90;;
18738;SDS011;9498;51.862;19.460;2022-12-31T09:23:15;15.07;;;4.43;;
18738;SDS011;9498;51.862;19.460;2022-12-31T09:25:44;8.93;;;4.40;;
18738;SDS011;9498;51.862;19.460;2022-12-31T09:28:13;10.03;;;4.87;;
18738;SDS011;9498;51.862;19.460;2022-12-31T09:30:44;8.93;;;4.53;;
18738;SDS011;9498;51.862;19.460;2022-12-31T09:33:15;10.20;;;5.20;;
18738;SDS011;9498;51.862;19.460;2022-12-31T09:35:49;9.13;;;4.57;;
18738;SDS011;9498;51.862;19.460;2022-12-31T09:38:19;8.27;;;4.47;;
18738;SDS011;9498;51.862;19.460;2022-12-31T09:40:58;9.13;;;4.60;;
18738;SDS011;9498;51.862;19.460;2022-12-31T09:52:41;6.60;;;3.80;;
18738;SDS011;9498;51.862;19.460;2022-12-31T09:55:22;7.47;;;4.23;;
18738;SDS011;9498;51.862;19.460;2022-12-31T09:57:54;7.03;;;3.63;;
18738;SDS011;9498;51.862;19.460;2022-12-31T10:00:27;8.60;;;4.30;;
18738;SDS011;9498;51.862;19.460;2022-12-31T10:03:06;6.37;;;3.60;;
18738;SDS011;9498;51.862;19.460;2022-12-31T10:05:42;5.93;;;3.40;;
18738;SDS011;9498;51.862;19.460;2022-12-31T10:08:16;7.50;;;3.93;;
18738;SDS011;9498;51.862;19.460;2022-12-31T10:10:52;7.23;;;3.50;;
18738;SDS011;9498;51.862;19.460;2022-12-31T10:13:23;6.63;;;3.70;;
18738;SDS011;9498;51.862;19.460;2022-12-31T10:16:00;10.00;;;3.80;;
18738;SDS011;9498;51.862;19.460;2022-12-31T10:18:36;6.43;;;3.17;;
18738;SDS011;9498;51.862;19.460;2022-12-31T10:21:10;5.83;;;3.33;;
18738;SDS011;9498;51.862;19.460;2022-12-31T10:23:52;6.03;;;3.57;;
18738;SDS011;9498;51.862;19.460;2022-12-31T10:26:30;7.30;;;3.60;;
18738;SDS011;9498;51.862;19.460;2022-12-31T10:29:07;7.20;;;3.30;;
18738;SDS011;9498;51.862;19.460;2022-12-31T10:31:37;7.93;;;4.00;;
18738;SDS011;9498;51.862;19.460;2022-12-31T10:34:11;6.77;;;3.40;;
18738;SDS011;9498;51.862;19.460;2022-12-31T10:36:45;8.33;;;3.50;;
18738;SDS011;9498;51.862;19.460;2022-12-31T10:39:17;6.53;;;3.40;;
18738;SDS011;9498;51.862;19.460;2022-12-31T10:44:46;5.70;;;3.00;;
18738;SDS011;9498;51.862;19.460;2022-12-31T10:50:14;9.40;;;3.40;;
18738;SDS011;9498;51.862;19.460;2022-12-31T10:55:42;6.33;;;3.53;;
18738;SDS011;9498;51.862;19.460;2022-12-31T11:01:36;8.63;;;3.63;;
18738;SDS011;9498;51.862;19.460;2022-12-31T11:06:59;9.70;;;3.83;;
18738;SDS011;9498;51.862;19.460;2022-12-31T11:12:38;6.80;;;3.70;;
18738;SDS011;9498;51.862;19.460;2022-12-31T11:15:15;9.00;;;3.90;;
18738;SDS011;9498;51.862;19.460;2022-12-31T11:17:47;6.23;;;4.00;;
18738;SDS011;9498;51.862;19.460;2022-12-31T11:20:24;6.93;;;4.07;;
18738;SDS011;9498;51.862;19.460;2022-12-31T11:22:56;7.97;;;3.90;;
18738;SDS011;9498;51.862;19.460;2022-12-31T11:25:30;8.93;;;4.93;;
18738;SDS011;9498;51.862;19.460;2022-12-31T11:28:13;7.63;;;4.40;;
18738;SDS011;9498;51.862;19.460;2022-12-31T11:30:50;7.90;;;4.50;;
18738;SDS011;9498;51.862;19.460;2022-12-31T11:33:24;9.63;;;4.63;;
18738;SDS011;9498;51.862;19.460;2022-12-31T11:35:59;7.57;;;4.60;;
18738;SDS011;9498;51.862;19.460;2022-12-31T11:38:30;8.77;;;4.97;;
18738;SDS011;9498;51.862;19.460;2022-12-31T11:40:59;8.57;;;4.83;;
18738;SDS011;9498;51.862;19.460;2022-12-31T11:43:34;9.23;;;4.90;;
18738;SDS011;9498;51.862;19.460;2022-12-31T11:46:11;11.23;;;4.67;;
18738;SDS011;9498;51.862;19.460;2022-12-31T11:48:43;10.17;;;5.07;;
18738;SDS011;9498;51.862;19.460;2022-12-31T11:51:23;7.97;;;4.43;;
18738;SDS011;9498;51.862;19.460;2022-12-31T11:54:05;8.60;;;5.30;;
18738;SDS011;9498;51.862;19.460;2022-12-31T11:56:37;7.70;;;4.53;;
18738;SDS011;9498;51.862;19.460;2022-12-31T11:59:08;9.03;;;5.03;;
18738;SDS011;9498;51.862;19.460;2022-12-31T12:01:40;8.47;;;4.73;;
18738;SDS011;9498;51.862;19.460;2022-12-31T12:04:09;9.93;;;4.73;;
18738;SDS011;9498;51.862;19.460;2022-12-31T12:06:38;10.63;;;4.83;;
18738;SDS011;9498;51.862;19.460;2022-12-31T12:09:09;9.40;;;4.60;;
18738;SDS011;9498;51.862;19.460;2022-12-31T12:11:40;8.57;;;4.73;;
18738;SDS011;9498;51.862;19.460;2022-12-31T12:14:19;9.40;;;4.90;;
18738;SDS011;9498;51.862;19.460;2022-12-31T12:16:46;9.73;;;5.20;;
18738;SDS011;9498;51.862;19.460;2022-12-31T12:19:18;9.13;;;4.30;;
18738;SDS011;9498;51.862;19.460;2022-12-31T12:21:46;10.87;;;4.83;;
18738;SDS011;9498;51.862;19.460;2022-12-31T12:24:17;10.73;;;5.50;;
18738;SDS011;9498;51.862;19.460;2022-12-31T12:26:45;8.87;;;4.80;;
18738;SDS011;9498;51.862;19.460;2022-12-31T12:29:15;10.07;;;4.53;;
18738;SDS011;9498;51.862;19.460;2022-12-31T12:31:54;9.43;;;4.63;;
18738;SDS011;9498;51.862;19.460;2022-12-31T12:34:22;9.37;;;4.90;;
18738;SDS011;9498;51.862;19.460;2022-12-31T12:36:50;12.13;;;4.83;;
18738;SDS011;9498;51.862;19.460;2022-12-31T12:39:19;11.70;;;4.47;;
18738;SDS011;9498;51.862;19.460;2022-12-31T12:41:47;8.53;;;4.33;;
18738;SDS011;9498;51.862;19.460;2022-12-31T12:44:24;8.17;;;4.37;;
18738;SDS011;9498;51.862;19.460;2022-12-31T12:46:53;11.43;;;4.67;;
18738;SDS011;9498;51.862;19.460;2022-12-31T12:49:21;9.53;;;4.70;;
18738;SDS011;9498;51.862;19.460;2022-12-31T12:51:56;8.13;;;4.27;;
18738;SDS011;9498;51.862;19.460;2022-12-31T12:54:32;9.37;;;4.30;;
18738;SDS011;9498;51.862;19.460;2022-12-31T12:57:06;7.73;;;4.10;;
18738;SDS011;9498;51.862;19.460;2022-12-31T12:59:42;8.77;;;4.37;;
18738;SDS011;9498;51.862;19.460;2022-12-31T13:02:18;7.23;;;4.20;;
18738;SDS011;9498;51.862;19.460;2022-12-31T13:04:52;8.77;;;4.47;;
18738;SDS011;9498;51.862;19.460;2022-12-31T13:07:27;6.70;;;3.97;;
18738;SDS011;9498;51.862;19.460;2022-12-31T13:10:03;9.98;;;4.85;;
18738;SDS011;9498;51.862;19.460;2022-12-31T13:12:33;7.97;;;4.33;;
18738;SDS011;9498;51.862;19.460;2022-12-31T13:15:02;9.00;;;4.60;;
18738;SDS011;9498;51.862;19.460;2022-12-31T13:17:48;8.57;;;4.27;;
18738;SDS011;9498;51.862;19.460;2022-12-31T13:20:18;8.27;;;3.90;;
18738;SDS011;9498;51.862;19.460;2022-12-31T13:22:50;8.13;;;3.90;;
18738;SDS011;9498;51.862;19.460;2022-12-31T13:25:23;6.40;;;3.67;;
18738;SDS011;9498;51.862;19.460;2022-12-31T13:27:52;7.17;;;4.10;;
18738;SDS011;9498;51.862;19.460;2022-12-31T13:30:25;7.57;;;4.00;;
18738;SDS011;9498;51.862;19.460;2022-12-31T13:32:56;5.77;;;3.53;;
18738;SDS011;9498;51.862;19.460;2022-12-31T13:35:25;6.70;;;3.97;;
18738;SDS011;9498;51.862;19.460;2022-12-31T13:37:56;6.30;;;3.67;;
18738;SDS011;9498;51.862;19.460;2022-12-31T13:40:26;6.97;;;3.87;;
18738;SDS011;9498;51.862;19.460;2022-12-31T13:42:57;7.60;;;3.80;;
18738;SDS011;9498;51.862;19.460;2022-12-31T13:45:29;5.70;;;3.30;;
18738;SDS011;9498;51.862;19.460;2022-12-31T13:47:59;6.70;;;3.57;;
18738;SDS011;9498;51.862;19.460;2022-12-31T13:50:30;7.00;;;3.60;;
18738;SDS011;9498;51.862;19.460;2022-12-31T13:53:02;5.67;;;3.40;;
18738;SDS011;9498;51.862;19.460;2022-12-31T13:55:31;6.83;;;3.67;;
18738;SDS011;9498;51.862;19.460;2022-12-31T13:58:02;7.80;;;3.80;;
18738;SDS011;9498;51.862;19.460;2022-12-31T14:00:32;8.43;;;3.50;;
18738;SDS011;9498;51.862;19.460;2022-12-31T14:03:05;6.38;;;3.70;;
18738;SDS011;9498;51.862;19.460;2022-12-31T14:05:36;9.43;;;4.23;;
18738;SDS011;9498;51.862;19.460;2022-12-31T14:08:04;5.90;;;3.43;;
18738;SDS011;9498;51.862;19.460;2022-12-31T14:10:39;8.23;;;3.93;;
18738;SDS011;9498;51.862;19.460;2022-12-31T14:13:10;9.07;;;4.20;;
18738;SDS011;9498;51.862;19.460;2022-12-31T14:15:40;8.00;;;3.83;;
18738;SDS011;9498;51.862;19.460;2022-12-31T14:18:11;6.60;;;3.80;;
18738;SDS011;9498;51.862;19.460;2022-12-31T14:20:41;9.30;;;3.63;;
18738;SDS011;9498;51.862;19.460;2022-12-31T14:23:12;6.83;;;3.40;;
18738;SDS011;9498;51.862;19.460;2022-12-31T14:25:42;8.37;;;3.60;;
18738;SDS011;9498;51.862;19.460;2022-12-31T14:28:13;7.83;;;3.60;;
18738;SDS011;9498;51.862;19.460;2022-12-31T14:30:41;6.63;;;3.50;;
18738;SDS011;9498;51.862;19.460;2022-12-31T14:33:17;7.13;;;3.90;;
18738;SDS011;9498;51.862;19.460;2022-12-31T14:35:54;8.03;;;3.50;;
18738;SDS011;9498;51.862;19.460;2022-12-31T14:38:25;7.60;;;3.60;;
18738;SDS011;9498;51.862;19.460;2022-12-31T14:41:01;7.13;;;3.50;;
18738;SDS011;9498;51.862;19.460;2022-12-31T14:43:33;5.83;;;3.30;;
18738;SDS011;9498;51.862;19.460;2022-12-31T14:46:08;5.73;;;3.20;;
18738;SDS011;9498;51.862;19.460;2022-12-31T14:48:41;7.20;;;3.63;;
18738;SDS011;9498;51.862;19.460;2022-12-31T14:51:11;8.17;;;3.40;;
18738;SDS011;9498;51.862;19.460;2022-12-31T14:53:39;7.80;;;3.30;;
18738;SDS011;9498;51.862;19.460;2022-12-31T14:56:26;6.63;;;3.50;;
18738;SDS011;9498;51.862;19.460;2022-12-31T14:58:54;6.40;;;3.33;;
18738;SDS011;9498;51.862;19.460;2022-12-31T15:01:21;6.57;;;3.57;;
18738;SDS011;9498;51.862;19.460;2022-12-31T15:03:51;8.03;;;3.90;;
18738;SDS011;9498;51.862;19.460;2022-12-31T15:06:39;8.03;;;3.37;;
18738;SDS011;9498;51.862;19.460;2022-12-31T15:09:15;6.53;;;3.63;;
18738;SDS011;9498;51.862;19.460;2022-12-31T15:12:03;8.33;;;3.53;;
18738;SDS011;9498;51.862;19.460;2022-12-31T15:14:44;8.20;;;4.10;;
18738;SDS011;9498;51.862;19.460;2022-12-31T15:17:19;5.20;;;3.20;;
18738;SDS011;9498;51.862;19.460;2022-12-31T15:20:04;11.50;;;3.83;;
18738;SDS011;9498;51.862;19.460;2022-12-31T15:22:36;8.10;;;3.87;;